createdAt,value
2019-05-15T00:01:19.328Z,102932.94
2019-05-15T00:03:51.291Z,102935.50
2019-05-15T00:06:23.038Z,102927.87
2019-05-15T00:08:54.296Z,102927.70
2019-05-15T00:11:25.949Z,102921.33
2019-05-15T00:13:58.961Z,102928.30
2019-05-15T00:16:30.609Z,102927.10
2019-05-15T00:19:01.896Z,102922.70
2019-05-15T00:21:33.201Z,102923.59
2019-05-15T00:24:04.408Z,102923.52
2019-05-15T00:26:35.882Z,102922.86
2019-05-15T00:29:14.777Z,102928.10
2019-05-15T00:31:40.242Z,102925.63
2019-05-15T00:34:12.802Z,102919.52
2019-05-15T00:36:44.596Z,102922.30
2019-05-15T00:39:16.242Z,102921.53
2019-05-15T00:41:53.593Z,102917.53
2019-05-15T00:44:20.370Z,102917.09
2019-05-15T00:46:51.576Z,102908.88
2019-05-15T00:49:22.837Z,102909.73
2019-05-15T00:51:54.210Z,102913.32
2019-05-15T00:54:25.560Z,102919.20
2019-05-15T00:56:57.912Z,102912.53
2019-05-15T00:59:30.042Z,102914.84
2019-05-15T01:02:01.937Z,102913.92
2019-05-15T01:04:33.403Z,102914.41
2019-05-15T01:07:04.588Z,102908.20
2019-05-15T01:09:35.777Z,102910.94
2019-05-15T01:12:09.103Z,102908.73
2019-05-15T01:14:39.951Z,102903.80
2019-05-15T01:17:11.212Z,102910.91
2019-05-15T01:19:42.869Z,102902.39
2019-05-15T01:22:14.129Z,102903.27
2019-05-15T01:24:45.403Z,102898.32
2019-05-15T01:27:18.418Z,102894.41
2019-05-15T01:29:49.735Z,102895.73
2019-05-15T01:32:21.591Z,102895.70
2019-05-15T01:34:52.865Z,102901.97
2019-05-15T01:37:24.160Z,102893.61
2019-05-15T01:39:55.498Z,102897.64
2019-05-15T01:42:28.011Z,102898.55
2019-05-15T01:44:59.413Z,102899.44
2019-05-15T01:47:30.771Z,102893.21
2019-05-15T01:50:02.077Z,102892.75
2019-05-15T01:52:33.464Z,102889.56
2019-05-15T01:55:05.226Z,102888.66
2019-05-15T01:57:38.400Z,102888.28
2019-05-15T02:00:10.254Z,102888.31
2019-05-15T02:02:41.756Z,102879.33
2019-05-15T02:05:13.140Z,102885.11
2019-05-15T02:07:44.351Z,102884.70
2019-05-15T02:10:15.491Z,102883.87
2019-05-15T02:12:48.088Z,102888.30
2019-05-15T02:15:19.893Z,102881.73
2019-05-15T02:17:51.150Z,102880.42
2019-05-15T02:20:22.486Z,102881.77
2019-05-15T02:22:54.140Z,102876.80
2019-05-15T02:25:25.484Z,102875.04
2019-05-15T02:27:58.731Z,102874.64
2019-05-15T02:30:33.939Z,102871.54
2019-05-15T02:33:02.780Z,102874.64
2019-05-15T02:35:34.007Z,102871.41
2019-05-15T02:38:09.723Z,102873.66
2019-05-15T02:40:41.989Z,102863.42
2019-05-15T02:43:13.744Z,102860.37
2019-05-15T02:45:44.887Z,102865.77
2019-05-15T02:48:19.731Z,102862.69
2019-05-15T02:50:50.199Z,102864.47
2019-05-15T02:53:21.893Z,102863.56
2019-05-15T02:55:55.379Z,102865.34
2019-05-15T02:58:29.133Z,102867.52
2019-05-15T03:00:59.627Z,102864.86
2019-05-15T03:03:31.182Z,102861.81
2019-05-15T03:06:02.457Z,102855.14
2019-05-15T03:08:34.089Z,102863.16
2019-05-15T03:11:05.370Z,102860.51
2019-05-15T03:13:39.184Z,102859.20
2019-05-15T03:16:10.550Z,102856.50
2019-05-15T03:18:41.921Z,102862.74
2019-05-15T03:21:13.132Z,102862.75
2019-05-15T03:23:44.635Z,102864.06
2019-05-15T03:26:15.978Z,102862.69
2019-05-15T03:28:49.629Z,102864.50
2019-05-15T03:31:41.518Z,102862.70
2019-05-15T03:33:55.163Z,102858.72
2019-05-15T03:36:31.690Z,102852.92
2019-05-15T03:38:59.745Z,102853.83
2019-05-15T03:41:30.957Z,102855.59
2019-05-15T03:44:02.333Z,102859.16
2019-05-15T03:46:33.846Z,102856.94
2019-05-15T03:49:05.097Z,102851.62
2019-05-15T03:51:39.930Z,102848.94
2019-05-15T03:54:09.556Z,102854.67
2019-05-15T03:56:40.973Z,102850.27
2019-05-15T03:59:12.155Z,102847.58
2019-05-15T04:01:44.145Z,102847.56
2019-05-15T04:04:18.745Z,102838.27
2019-05-15T04:06:49.972Z,102848.84
2019-05-15T04:09:21.672Z,102842.98
2019-05-15T04:11:52.935Z,102840.73
2019-05-15T04:14:24.107Z,102839.00
2019-05-15T04:16:55.488Z,102839.86
2019-05-15T04:19:29.351Z,102848.27
2019-05-15T04:22:00.250Z,102842.00
2019-05-15T04:24:31.930Z,102844.12
2019-05-15T04:27:09.844Z,102835.08
2019-05-15T04:29:39.841Z,102839.96
2019-05-15T04:32:11.257Z,102838.21
2019-05-15T04:34:42.590Z,102840.34
2019-05-15T04:37:13.844Z,102833.22
2019-05-15T04:39:45.051Z,102836.77
2019-05-15T04:42:16.644Z,102838.91
2019-05-15T04:44:49.518Z,102841.61
2019-05-15T04:47:20.840Z,102838.02
2019-05-15T04:49:52.767Z,102833.93
2019-05-15T04:52:23.952Z,102831.70
2019-05-15T04:54:55.109Z,102828.04
2019-05-15T04:57:30.368Z,102823.12
2019-05-15T04:59:59.899Z,102827.05
2019-05-15T05:02:32.357Z,102823.89
2019-05-15T05:05:03.858Z,102828.79
2019-05-15T05:07:35.346Z,102823.73
2019-05-15T05:10:09.563Z,102822.69
2019-05-15T05:12:42.584Z,102826.13
2019-05-15T05:15:14.649Z,102823.02
2019-05-15T05:17:45.904Z,102828.39
2019-05-15T05:20:17.962Z,102829.73
2019-05-15T05:22:49.561Z,102834.13
2019-05-15T05:25:21.266Z,102830.52
2019-05-15T05:27:52.443Z,102830.02
2019-05-15T05:30:26.294Z,102837.92
2019-05-15T05:32:58.562Z,102837.86
2019-05-15T05:35:29.766Z,102835.70
2019-05-15T05:38:00.927Z,102838.78
2019-05-15T05:40:32.123Z,102834.67
2019-05-15T05:43:03.720Z,102834.09
2019-05-15T05:45:38.343Z,102835.80
2019-05-15T05:48:09.267Z,102830.79
2019-05-15T05:50:44.403Z,102833.87
2019-05-15T05:53:15.469Z,102834.71
2019-05-15T05:55:49.213Z,102836.59
2019-05-15T05:58:20.547Z,102837.38
2019-05-15T06:00:52.234Z,102838.84
2019-05-15T06:03:23.564Z,102842.86
2019-05-15T06:05:54.739Z,102840.55
2019-05-15T06:08:28.108Z,102836.37
2019-05-15T06:10:59.896Z,102840.88
2019-05-15T06:13:31.115Z,102839.30
2019-05-15T06:16:02.679Z,102843.55
2019-05-15T06:18:33.870Z,102839.55
2019-05-15T06:21:05.123Z,102844.62
2019-05-15T06:23:36.866Z,102841.32
2019-05-15T06:27:27.929Z,102848.17
2019-05-15T06:29:59.271Z,102850.42
2019-05-15T06:32:30.748Z,102851.45
2019-05-15T06:35:02.038Z,102854.36
2019-05-15T06:37:35.344Z,102842.04
2019-05-15T06:40:08.481Z,102847.73
2019-05-15T06:42:39.929Z,102848.82
2019-05-15T06:45:11.446Z,102837.71
2019-05-15T06:47:42.759Z,102838.09
2019-05-15T06:50:14.880Z,102835.98
2019-05-15T06:52:48.534Z,102835.34
2019-05-15T06:55:19.558Z,102833.28
2019-05-15T06:57:50.847Z,102828.59
2019-05-15T07:00:22.096Z,102828.81
2019-05-15T07:02:58.350Z,102827.13
2019-05-15T07:05:29.620Z,102821.81
2019-05-15T07:08:00.829Z,102822.33
2019-05-15T07:10:32.130Z,102824.93
2019-05-15T07:13:03.344Z,102818.03
2019-05-15T07:15:34.828Z,102810.50
2019-05-15T07:18:08.542Z,102815.08
2019-05-15T07:20:39.404Z,102811.63
2019-05-15T07:23:22.261Z,102820.50
2019-05-15T07:25:58.783Z,102809.75
2019-05-15T07:28:30.593Z,102815.31
2019-05-15T07:31:01.767Z,102814.66
2019-05-15T07:33:39.629Z,102808.12
2019-05-15T07:36:08.190Z,102805.20
2019-05-15T07:38:39.328Z,102803.63
2019-05-15T07:41:10.747Z,102803.16
2019-05-15T07:43:43.520Z,102806.42
2019-05-15T07:46:38.250Z,102804.44
2019-05-15T07:49:09.947Z,102812.41
2019-05-15T07:51:41.340Z,102802.48
2019-05-15T07:54:12.713Z,102806.50
2019-05-15T07:56:44.266Z,102807.77
2019-05-15T07:59:15.906Z,102807.23
2019-05-15T08:01:48.857Z,102807.30
2019-05-15T08:04:28.832Z,102804.34
2019-05-15T08:06:58.908Z,102801.59
2019-05-15T08:09:29.047Z,102801.28
2019-05-15T08:12:03.208Z,102798.22
2019-05-15T08:14:33.330Z,102798.83
2019-05-15T08:17:04.907Z,102804.41
2019-05-15T08:19:38.336Z,102800.72
2019-05-15T08:22:09.580Z,102802.70
2019-05-15T08:24:44.683Z,102794.34
2019-05-15T08:27:15.972Z,102791.28
2019-05-15T08:29:48.695Z,102788.03
2019-05-15T08:32:21.048Z,102784.05
2019-05-15T08:34:52.490Z,102783.72
2019-05-15T08:37:23.837Z,102776.61
2019-05-15T08:39:55.359Z,102778.23
2019-05-15T08:42:28.121Z,102773.59
2019-05-15T08:44:59.491Z,102768.69
2019-05-15T08:47:30.747Z,102769.10
2019-05-15T08:50:02.049Z,102774.75
2019-05-15T08:52:33.360Z,102768.81
2019-05-15T08:55:08.565Z,102767.56
2019-05-15T08:57:39.984Z,102757.97
2019-05-15T09:00:14.357Z,102757.48
2019-05-15T09:02:50.955Z,102759.80
2019-05-15T09:05:28.279Z,102754.89
2019-05-15T09:08:00.624Z,102755.23
2019-05-15T09:10:31.846Z,102753.23
2019-05-15T09:13:03.379Z,102755.06
2019-05-15T09:15:34.659Z,102748.06
2019-05-15T09:18:12.332Z,102749.08
2019-05-15T09:20:38.741Z,102740.73
2019-05-15T09:23:11.674Z,102749.20
2019-05-15T09:25:43.217Z,102741.32
2019-05-15T09:28:14.502Z,102738.09
2019-05-15T09:30:48.111Z,102739.40
2019-05-15T09:33:20.164Z,102739.02
2019-05-15T09:35:51.698Z,102741.27
2019-05-15T09:38:23.305Z,102737.25
2019-05-15T09:40:54.633Z,102745.53
2019-05-15T09:43:25.778Z,102744.32
2019-05-15T09:45:58.258Z,102741.67
2019-05-15T09:48:29.827Z,102741.38
2019-05-15T09:51:01.616Z,102728.83
2019-05-15T09:53:33.490Z,102736.15
2019-05-15T09:56:04.668Z,102732.86
2019-05-15T09:58:38.201Z,102721.94
2019-05-15T10:01:09.340Z,102725.71
2019-05-15T10:03:44.422Z,102719.25
2019-05-15T10:06:13.484Z,102722.63
2019-05-15T10:08:44.839Z,102712.70
2019-05-15T10:11:15.994Z,102718.97
2019-05-15T10:13:47.209Z,102711.63
2019-05-15T10:16:19.740Z,102707.31
2019-05-15T10:18:51.565Z,102703.94
2019-05-15T10:21:23.022Z,102708.65
2019-05-15T10:23:54.338Z,102701.37
2019-05-15T10:26:28.509Z,102696.07
2019-05-15T10:28:59.650Z,102699.20
2019-05-15T10:31:30.950Z,102694.24
2019-05-15T10:34:02.269Z,102699.29
2019-05-15T10:36:33.405Z,102695.88
2019-05-15T10:39:08.367Z,102692.51
2019-05-15T10:41:40.290Z,102689.16
2019-05-15T10:44:12.604Z,102689.81
2019-05-15T10:46:43.921Z,102680.55
2019-05-15T10:49:19.051Z,102680.91
2019-05-15T10:51:50.776Z,102687.11
2019-05-15T10:54:23.145Z,102682.58
2019-05-15T10:56:55.343Z,102684.08
2019-05-15T10:59:27.677Z,102673.66
2019-05-15T11:01:59.240Z,102675.50
2019-05-15T11:04:30.548Z,102669.98
2019-05-15T11:07:01.688Z,102669.59
2019-05-15T11:09:32.934Z,102666.53
2019-05-15T11:12:04.129Z,102657.64
2019-05-15T11:14:37.876Z,102659.87
2019-05-15T11:17:08.611Z,102661.14
2019-05-15T11:19:40.793Z,102651.57
2019-05-15T11:22:12.643Z,102651.83
2019-05-15T11:24:44.069Z,102646.01
2019-05-15T11:27:15.453Z,102649.30
2019-05-15T11:29:47.794Z,102647.41
2019-05-15T11:32:20.219Z,102638.34
2019-05-15T11:34:51.568Z,102643.00
2019-05-15T11:37:23.224Z,102634.28
2019-05-15T11:39:58.984Z,102641.58
2019-05-15T11:42:30.098Z,102634.88
2019-05-15T11:45:01.371Z,102633.52
2019-05-15T11:47:32.559Z,102639.59
2019-05-15T11:50:05.176Z,102634.23
2019-05-15T11:52:40.153Z,102635.08
2019-05-15T11:55:10.844Z,102636.43
2019-05-15T11:57:46.969Z,102639.13
2019-05-15T12:00:21.956Z,102634.54
2019-05-15T12:02:49.482Z,102631.02
2019-05-15T12:05:21.473Z,102629.55
2019-05-15T12:07:53.366Z,102638.54
2019-05-15T12:10:24.517Z,102629.73
2019-05-15T12:12:55.783Z,102642.33
2019-05-15T12:15:27.976Z,102624.17
2019-05-15T12:18:16.069Z,102626.50
2019-05-15T12:20:48.695Z,102628.88
2019-05-15T12:23:20.085Z,102627.13
2019-05-15T12:25:51.380Z,102630.12
2019-05-15T12:28:29.562Z,102627.34
2019-05-15T12:31:00.027Z,102615.77
2019-05-15T12:33:31.650Z,102622.81
2019-05-15T12:36:02.867Z,102616.91
2019-05-15T12:38:34.081Z,102623.74
2019-05-15T13:01:41.171Z,102603.99
2019-05-15T13:04:13.876Z,102601.48
2019-05-15T13:06:55.167Z,102602.44
2019-05-15T13:09:24.263Z,102599.56
2019-05-15T13:11:57.663Z,102603.42
2019-05-15T13:14:28.992Z,102596.73
2019-05-15T13:17:00.615Z,102592.39
2019-05-15T13:19:32.149Z,102599.27
2019-05-15T13:22:03.327Z,102584.38
2019-05-15T13:24:34.656Z,102586.39
2019-05-15T13:27:07.793Z,102591.23
2019-05-15T13:29:39.488Z,102575.65
2019-05-15T13:32:10.872Z,102581.17
2019-05-15T13:34:44.857Z,102575.75
2019-05-15T13:37:26.790Z,102577.66
2019-05-15T13:39:49.855Z,102576.84
2019-05-15T13:42:22.118Z,102577.49
2019-05-15T13:44:53.729Z,102571.80
2019-05-15T13:47:25.152Z,102578.17
2019-05-15T13:49:58.605Z,102567.00
2019-05-15T13:52:30.117Z,102572.16
2019-05-15T13:55:03.030Z,102570.42
2019-05-15T13:57:34.208Z,102576.29
2019-05-15T14:00:08.473Z,102569.42
2019-05-15T14:02:40.348Z,102565.78
2019-05-15T14:05:11.705Z,102562.52
2019-05-15T14:07:49.211Z,102560.27
2019-05-15T14:10:17.988Z,102563.59
2019-05-15T14:12:48.936Z,102562.70
2019-05-15T14:15:21.032Z,102560.09
2019-05-15T14:17:52.181Z,102560.09
2019-05-15T14:20:23.997Z,102557.42
2019-05-15T14:22:58.522Z,102557.52
2019-05-15T14:25:29.415Z,102556.61
2019-05-15T14:28:01.127Z,102556.55
2019-05-15T14:30:32.601Z,102552.80
2019-05-15T14:33:03.984Z,102562.19
2019-05-15T14:35:37.761Z,102551.54
2019-05-15T14:38:10.656Z,102555.27
2019-05-15T14:40:42.667Z,102561.85
2019-05-15T14:43:14.721Z,102567.14
2019-05-15T14:45:48.098Z,102550.39
2019-05-15T14:48:19.971Z,102558.50
2019-05-15T14:50:51.202Z,102552.34
2019-05-15T14:53:31.064Z,102546.45
2019-05-15T14:56:03.121Z,102550.52
2019-05-15T14:58:34.384Z,102555.08
2019-05-15T15:01:11.524Z,102557.92
2019-05-15T15:03:40.311Z,102554.02
2019-05-15T15:06:11.890Z,102553.52
2019-05-15T15:08:43.121Z,102546.34
2019-05-15T15:11:18.095Z,102552.91
2019-05-15T15:13:50.322Z,102538.97
2019-05-15T15:16:21.591Z,102540.47
2019-05-15T15:18:53.445Z,102534.48
2019-05-15T15:21:24.761Z,102534.90
2019-05-15T15:23:58.652Z,102535.44
2019-05-15T15:26:29.638Z,102536.23
2019-05-15T15:29:00.899Z,102535.05
2019-05-15T15:31:32.212Z,102532.97
2019-05-15T15:34:03.597Z,102527.45
2019-05-15T15:36:35.255Z,102528.80
2019-05-15T15:39:08.293Z,102529.09
2019-05-15T15:41:40.099Z,102522.34
2019-05-15T15:44:12.315Z,102522.33
2019-05-15T15:46:43.661Z,102511.75
2019-05-15T15:49:18.140Z,102519.80
2019-05-15T15:51:49.796Z,102522.55
2019-05-15T15:54:21.320Z,102519.58
2019-05-15T15:56:52.564Z,102509.16
2019-05-15T15:59:24.862Z,102503.36
2019-05-15T16:01:59.692Z,102512.32
2019-05-15T16:04:30.784Z,102507.13
2019-05-15T16:07:02.880Z,102505.33
2019-05-15T16:09:34.451Z,102498.34
2019-05-15T16:12:05.801Z,102503.91
2019-05-15T16:14:38.096Z,102496.95
2019-05-15T16:17:09.691Z,102487.35
2019-05-15T16:19:41.207Z,102494.27
2019-05-15T16:22:12.779Z,102487.16
2019-05-15T16:24:45.320Z,102481.26
2019-05-15T16:27:19.432Z,102478.11
2019-05-15T16:30:11.095Z,102483.66
2019-05-15T16:32:43.047Z,102479.62
2019-05-15T16:35:15.135Z,102478.48
2019-05-15T16:37:49.256Z,102481.50
2019-05-15T16:40:20.647Z,102492.05
2019-05-15T16:42:54.911Z,102488.22
2019-05-15T16:45:28.664Z,102484.29
2019-05-15T16:47:59.755Z,102479.34
2019-05-15T16:50:31.106Z,102476.80
2019-05-15T16:53:02.700Z,102477.55
2019-05-15T16:55:33.951Z,102483.14
2019-05-15T16:58:05.428Z,102481.55
2019-05-15T17:00:38.431Z,102481.10
2019-05-15T17:03:15.009Z,102481.02
2019-05-15T17:05:43.346Z,102478.44
2019-05-15T17:08:14.825Z,102478.44
2019-05-15T17:10:48.366Z,102479.88
2019-05-15T17:13:19.902Z,102484.64
2019-05-15T17:15:51.254Z,102485.30
2019-05-15T17:18:22.682Z,102491.11
2019-05-15T17:20:55.399Z,102486.28
2019-05-15T17:23:27.737Z,102484.30
2019-05-15T17:25:59.374Z,102484.16
2019-05-15T17:28:30.607Z,102483.95
2019-05-15T17:31:01.997Z,102480.15
2019-05-15T17:33:33.367Z,102485.30
2019-05-15T17:36:06.276Z,102479.26
2019-05-15T17:38:39.104Z,102481.43
2019-05-15T17:41:10.521Z,102476.84
2019-05-15T17:43:41.805Z,102480.06
2019-05-15T17:46:16.819Z,102474.99
2019-05-15T17:48:55.697Z,102477.66
2019-05-15T17:51:21.239Z,102476.09
2019-05-15T17:53:53.655Z,102468.81
2019-05-15T17:56:24.854Z,102470.53
2019-05-15T17:58:58.159Z,102469.42
2019-05-15T18:01:29.568Z,102471.55
2019-05-15T18:04:01.703Z,102474.88
2019-05-15T18:06:33.036Z,102465.25
2019-05-15T18:09:08.723Z,102472.58
2019-05-15T18:11:40.600Z,102473.44
2019-05-15T18:14:12.044Z,102474.25
2019-05-15T18:16:48.705Z,102472.53
2019-05-15T18:19:19.365Z,102477.23
2019-05-15T18:21:52.155Z,102479.09
2019-05-15T18:24:23.576Z,102484.22
2019-05-15T18:26:55.855Z,102492.52
2019-05-15T18:29:29.053Z,102486.70
2019-05-15T18:32:01.898Z,102492.73
2019-05-15T18:34:33.285Z,102496.98
2019-05-15T18:37:04.721Z,102500.05
2019-05-15T18:39:36.122Z,102495.44
2019-05-15T18:42:08.160Z,102495.31
2019-05-15T18:44:39.483Z,102494.51
2019-05-15T18:47:11.098Z,102496.62
2019-05-15T18:49:42.439Z,102498.84
2019-05-15T18:52:14.194Z,102497.09
2019-05-15T18:54:48.092Z,102498.39
2019-05-15T18:57:20.515Z,102501.71
2019-05-15T18:59:51.974Z,102503.70
2019-05-15T19:02:23.374Z,102506.84
2019-05-15T19:04:54.764Z,102513.12
2019-05-15T19:07:26.005Z,102504.98
2019-05-15T19:09:58.299Z,102502.60
2019-05-15T19:12:29.520Z,102501.01
2019-05-15T19:15:01.777Z,102496.01
2019-05-15T19:17:33.211Z,102503.26
2019-05-15T19:20:08.430Z,102503.52
2019-05-15T19:22:41.018Z,102508.33
2019-05-15T19:25:12.716Z,102509.62
2019-05-15T19:27:45.102Z,102504.52
2019-05-15T19:30:18.884Z,102502.66
2019-05-15T19:32:52.336Z,102505.77
2019-05-15T19:35:23.855Z,102503.86
2019-05-15T19:37:58.537Z,102515.91
2019-05-15T19:40:30.343Z,102514.03
2019-05-15T19:43:04.002Z,102513.21
2019-05-15T19:45:34.825Z,102510.63
2019-05-15T19:48:08.786Z,102515.61
2019-05-15T19:50:40.134Z,102504.77
2019-05-15T19:53:14.575Z,102505.14
2019-05-15T19:55:47.961Z,102511.72
2019-05-15T19:58:18.950Z,102505.19
2019-05-15T20:00:51.646Z,102518.54
2019-05-15T20:03:23.225Z,102513.98
2019-05-15T20:06:01.771Z,102510.08
2019-05-15T20:08:33.397Z,102509.99
2019-05-15T20:11:10.171Z,102511.87
2019-05-15T20:13:40.697Z,102507.45
2019-05-15T20:16:11.868Z,102505.55
2019-05-15T20:18:43.288Z,102504.52
2019-05-15T20:21:15.067Z,102499.96
2019-05-15T20:23:48.899Z,102502.39
2019-05-15T20:26:20.943Z,102505.86
2019-05-15T20:28:52.688Z,102505.95
2019-05-15T20:31:24.155Z,102503.55
2019-05-15T20:34:49.937Z,102504.37
2019-05-15T20:37:21.277Z,102503.94
2019-05-15T20:39:52.674Z,102501.69
2019-05-15T20:42:24.055Z,102497.64
2019-05-15T20:44:57.913Z,102494.18
2019-05-15T20:47:28.936Z,102493.83
2019-05-15T20:50:00.377Z,102490.12
2019-05-15T20:52:35.999Z,102494.31
2019-05-15T20:55:08.515Z,102496.53
2019-05-15T20:57:41.233Z,102491.25
2019-05-15T21:00:14.629Z,102492.63
2019-05-15T21:02:48.358Z,102492.23
2019-05-15T21:05:19.330Z,102484.79
2019-05-15T21:07:51.147Z,102489.77
2019-05-15T21:10:22.792Z,102488.07
2019-05-15T21:12:54.817Z,102480.89
2019-05-15T21:15:26.409Z,102481.76
2019-05-15T21:18:10.825Z,102489.86
2019-05-15T21:20:31.295Z,102487.64
2019-05-15T21:23:02.589Z,102490.41
2019-05-15T21:25:34.001Z,102485.60
2019-05-15T21:28:08.345Z,102484.65
2019-05-15T21:30:41.138Z,102476.64
2019-05-15T21:33:12.409Z,102478.73
2019-05-15T21:35:43.697Z,102480.02
2019-05-15T21:38:15.231Z,102476.98
2019-05-15T21:40:47.961Z,102472.75
2019-05-15T21:43:19.384Z,102473.66
2019-05-15T21:45:51.235Z,102473.70
2019-05-15T21:48:23.060Z,102475.60
2019-05-15T21:50:55.297Z,102478.02
2019-05-15T21:53:28.753Z,102476.20
2019-05-15T21:55:59.494Z,102473.73
2019-05-15T21:58:30.691Z,102476.03
2019-05-15T22:01:02.223Z,102474.55
2019-05-15T22:03:33.546Z,102469.53
2019-05-15T22:06:05.195Z,102466.16
2019-05-15T22:08:38.286Z,102464.82
2019-05-15T22:11:09.250Z,102464.43
2019-05-15T22:13:40.435Z,102466.51
2019-05-15T22:16:12.557Z,102468.02
2019-05-15T22:18:44.027Z,102462.56
2019-05-15T22:21:15.382Z,102461.70
2019-05-15T22:23:47.834Z,102461.36
2019-05-15T22:26:21.500Z,102461.39
2019-05-15T22:28:52.127Z,102458.67
2019-05-15T22:31:23.409Z,102452.27
2019-05-15T22:33:54.714Z,102450.87
2019-05-15T22:36:28.111Z,102452.16
2019-05-15T22:39:00.114Z,102439.62
2019-05-15T22:41:32.453Z,102443.72
2019-05-15T22:44:03.732Z,102438.00
2019-05-15T22:48:07.136Z,102432.95
2019-05-15T22:50:39.871Z,102437.10
2019-05-15T22:53:11.639Z,102438.99
2019-05-15T22:55:43.161Z,102428.58
2019-05-15T22:58:15.264Z,102431.69
2019-05-15T23:00:48.964Z,102422.30
2019-05-15T23:03:20.049Z,102417.73
2019-05-15T23:05:51.706Z,102423.53
2019-05-15T23:08:22.944Z,102414.34
2019-05-15T23:10:54.401Z,102404.80
2019-05-15T23:13:25.737Z,102405.55
2019-05-15T23:15:58.402Z,102395.77
2019-05-15T23:18:30.797Z,102397.31
2019-05-15T23:21:02.753Z,102394.32
2019-05-15T23:23:34.062Z,102393.80
2019-05-15T23:26:05.730Z,102387.93
2019-05-15T23:28:38.673Z,102393.30
2019-05-15T23:31:10.114Z,102383.91
2019-05-15T23:33:41.463Z,102385.64
2019-05-15T23:36:13.335Z,102386.63
2019-05-15T23:38:44.506Z,102381.42
2019-05-15T23:41:19.330Z,102382.37
2019-05-15T23:43:50.358Z,102381.03
2019-05-15T23:46:21.754Z,102382.77
2019-05-15T23:48:53.466Z,102377.48
2019-05-15T23:51:27.814Z,102380.99
2019-05-15T23:54:01.981Z,102371.96
2019-05-15T23:56:33.273Z,102369.20
2019-05-15T23:59:05.001Z,102361.50
